Time;durP1;ratioP1;P1;durP2;ratioP2;P2;SDS_P1;SDS_P2;PMS_P1;PMS_P2;Temp;Humidity;BMP_temperature;BMP_pressure;BME280_temperature;BME280_humidity;BME280_pressure;Samples;Min_cycle;Max_cycle;Signal;HPM_P1;HPM_P2
2023/01/20 00:01:50;;;;;;;12.02;7.30;;;;;;;1.72;50.75;100667.38;5036972;28;20487;-70
2023/01/20 00:04:18;;;;;;;12.70;7.43;;;;;;;1.72;50.88;100676.34;5030139;28;20529;-70
2023/01/20 00:06:48;;;;;;;11.30;6.72;;;;;;;1.74;50.85;100676.25;5031110;28;20056;-71
2023/01/20 00:09:17;;;;;;;12.38;7.18;;;;;;;1.74;50.79;100670.84;5047729;28;20044;-71
2023/01/20 00:11:46;;;;;;;13.13;7.55;;;;;;;1.74;50.92;100677.13;5050657;28;20057;-71
2023/01/20 00:14:14;;;;;;;13.10;6.95;;;;;;;1.76;50.78;100682.41;5040288;28;20050;-71
2023/01/20 00:16:41;;;;;;;13.13;7.00;;;;;;;1.75;50.87;100675.31;5038738;28;20410;-68
2023/01/20 00:19:12;;;;;;;13.52;7.15;;;;;;;1.76;50.76;100679.72;5039613;28;20077;-71
2023/01/20 00:21:39;;;;;;;11.82;6.40;;;;;;;1.76;50.92;100677.00;5050239;28;20095;-71
2023/01/20 00:24:09;;;;;;;11.50;6.70;;;;;;;1.77;50.87;100678.75;5031346;28;20037;-71
2023/01/20 00:26:36;;;;;;;13.65;6.47;;;;;;;1.77;50.87;100676.94;5035766;28;20052;-70
2023/01/20 00:29:04;;;;;;;10.73;6.85;;;;;;;1.78;50.79;100692.19;5048444;28;20047;-68
2023/01/20 00:31:33;;;;;;;10.68;6.63;;;;;;;1.79;50.81;100693.94;5049754;28;20056;-70
2023/01/20 00:34:01;;;;;;;12.73;6.97;;;;;;;1.79;51.01;100695.75;5050282;28;20063;-69
2023/01/20 00:36:31;;;;;;;11.75;7.32;;;;;;;1.80;51.13;100701.06;5049646;28;20049;-71
2023/01/20 00:39:00;;;;;;;12.63;6.70;;;;;;;1.80;51.03;100700.19;5049711;28;20041;-70
2023/01/20 00:41:30;;;;;;;12.70;7.15;;;;;;;1.81;50.81;100701.94;5049444;28;20456;-71
2023/01/20 00:43:58;;;;;;;12.82;7.25;;;;;;;1.81;50.91;100705.53;5042312;28;20128;-71
2023/01/20 00:46:25;;;;;;;14.23;6.93;;;;;;;1.81;50.94;100716.31;5030019;28;20506;-70
2023/01/20 00:48:53;;;;;;;11.48;6.75;;;;;;;1.81;50.95;100710.91;5030071;28;20049;-69
2023/01/20 00:51:21;;;;;;;10.52;6.90;;;;;;;1.82;51.00;100714.47;5030351;28;20049;-69
2023/01/20 00:53:49;;;;;;;12.80;7.28;;;;;;;1.83;50.93;100718.94;5029908;28;20053;-69
2023/01/20 00:56:17;;;;;;;13.80;7.03;;;;;;;1.83;50.93;100713.53;5027956;28;20041;-70
2023/01/20 00:58:46;;;;;;;12.40;6.78;;;;;;;1.83;50.96;100714.41;5029558;28;20049;-71
2023/01/20 01:01:14;;;;;;;12.77;7.68;;;;;;;1.84;50.95;100709.84;5038135;28;20409;-69
2023/01/20 01:03:42;;;;;;;13.43;7.63;;;;;;;1.83;50.92;100713.53;5048451;28;20044;-70
2023/01/20 01:06:12;;;;;;;13.70;7.13;;;;;;;1.84;50.78;100715.25;5047131;28;20049;-70
2023/01/20 01:08:40;;;;;;;14.13;7.45;;;;;;;1.84;50.83;100717.94;5036482;28;20534;-70
2023/01/20 01:11:09;;;;;;;11.68;7.03;;;;;;;1.84;51.02;100717.94;5029292;28;20507;-68
2023/01/20 01:13:37;;;;;;;12.80;7.90;;;;;;;1.83;51.00;100717.09;5049845;28;20048;-69
2023/01/20 01:16:10;;;;;;;12.00;7.25;;;;;;;1.85;51.02;100722.41;5047980;28;20041;-70
2023/01/20 01:18:39;;;;;;;12.20;7.47;;;;;;;1.84;50.73;100731.44;5039858;28;20048;-70
2023/01/20 01:21:08;;;;;;;14.00;7.88;;;;;;;1.84;50.79;100728.75;5037448;28;20044;-71
2023/01/20 01:23:36;;;;;;;14.27;7.80;;;;;;;1.84;50.88;100734.13;5049246;28;20048;-70
2023/01/20 01:26:04;;;;;;;16.67;8.55;;;;;;;1.84;50.80;100735.00;5048521;28;20409;-70
2023/01/20 01:28:32;;;;;;;15.75;8.73;;;;;;;1.83;50.66;100736.00;5039591;28;20453;-71
2023/01/20 01:31:01;;;;;;;14.60;8.15;;;;;;;1.84;50.57;100743.09;5048941;28;20098;-70
2023/01/20 01:33:31;;;;;;;14.48;8.00;;;;;;;1.84;50.71;100744.94;5049250;28;20132;-70
2023/01/20 01:36:00;;;;;;;15.18;8.30;;;;;;;1.84;50.67;100753.03;5039984;28;20040;-71
2023/01/20 01:38:28;;;;;;;15.85;8.35;;;;;;;1.83;50.59;100749.50;5032679;28;20088;-70
2023/01/20 01:40:56;;;;;;;14.65;8.38;;;;;;;1.82;50.55;100749.56;5028372;28;20045;-70
2023/01/20 01:43:26;;;;;;;16.60;9.35;;;;;;;1.84;50.59;100753.03;5040187;28;20142;-70
2023/01/20 01:45:54;;;;;;;15.30;8.75;;;;;;;1.82;50.49;100766.63;5041115;28;20045;-70
2023/01/20 01:48:23;;;;;;;16.17;8.65;;;;;;;1.83;50.47;100759.41;5046509;28;20549;-70
2023/01/20 01:50:56;;;;;;;15.65;9.23;;;;;;;1.83;50.67;100772.91;5046919;28;20040;-71
2023/01/20 01:53:26;;;;;;;15.18;9.07;;;;;;;1.80;50.83;100765.84;5036585;28;20037;-69
2023/01/20 01:55:58;;;;;;;17.92;9.23;;;;;;;1.81;50.57;100769.41;5028690;28;20037;-69
2023/01/20 01:58:30;;;;;;;17.83;9.00;;;;;;;1.79;50.72;100766.78;5028334;28;20041;-70
2023/01/20 02:00:57;;;;;;;17.63;9.02;;;;;;;1.80;50.67;100767.66;5027426;28;20088;-71
2023/01/20 02:03:29;;;;;;;16.05;8.85;;;;;;;1.81;50.94;100770.28;5046692;28;20708;-70
2023/01/20 02:05:58;;;;;;;16.40;8.75;;;;;;;1.81;50.80;100769.41;5047916;28;20045;-69
2023/01/20 02:08:26;;;;;;;18.08;9.68;;;;;;;1.81;50.76;100774.81;5048706;28;20056;-68
2023/01/20 02:10:54;;;;;;;15.43;9.00;;;;;;;1.81;50.73;100778.38;5047053;28;20371;-69
2023/01/20 02:13:22;;;;;;;16.08;9.18;;;;;;;1.82;50.80;100773.84;5047411;28;20425;-71
2023/01/20 02:16:03;;;;;;;17.73;9.43;;;;;;;1.86;50.85;100778.13;5047666;28;20095;-71
2023/01/20 02:18:45;;;;;;;18.13;9.48;;;;;;;1.84;50.94;100788.97;5044617;28;20053;-71
2023/01/20 02:21:54;;;;;;;18.63;10.32;;;;;;;1.82;50.98;100787.34;5029365;28;20049;-70
2023/01/20 02:24:41;;;;;;;16.92;9.38;;;;;;;1.82;50.96;100780.13;5026096;28;20452;-71
2023/01/20 02:27:13;;;;;;;21.50;10.82;;;;;;;1.81;50.68;100785.59;5049629;28;20049;-71
2023/01/20 02:30:27;;;;;;;17.98;9.45;;;;;;;1.82;51.00;100790.03;5064653;28;20048;-71
2023/01/20 02:33:00;;;;;;;18.13;10.48;;;;;;;1.81;50.90;100791.00;5013349;28;20053;-69
2023/01/20 02:35:33;;;;;;;;;;;;;;;1.60;51.50;100792.97;5028101;28;20049;-70
2023/01/20 02:38:13;;;;;;;14.55;8.23;;;;;;;1.78;51.17;100792.00;5037231;28;19924;-71
2023/01/20 02:40:48;;;;;;;15.82;8.93;;;;;;;1.80;50.83;100791.94;5047647;28;20045;-68
2023/01/20 02:43:23;;;;;;;16.00;8.85;;;;;;;1.81;50.68;100793.69;5044097;28;20077;-71
2023/01/20 02:46:00;;;;;;;15.65;8.48;;;;;;;1.82;50.71;100799.00;5027701;28;20517;-71
2023/01/20 02:48:34;;;;;;;17.30;9.30;;;;;;;1.81;50.62;100805.34;5028166;28;20087;-70
2023/01/20 02:51:09;;;;;;;15.75;8.88;;;;;;;1.81;50.78;100789.16;5027473;28;20059;-71
2023/01/20 02:53:43;;;;;;;18.83;8.88;;;;;;;1.81;50.57;100796.38;5041234;28;20136;-71
2023/01/20 02:56:12;;;;;;;18.00;8.88;;;;;;;1.79;50.57;100798.28;5047308;28;20448;-70
2023/01/20 02:58:46;;;;;;;18.17;9.48;;;;;;;1.80;50.67;100800.03;5048255;28;20090;-69
2023/01/20 03:01:18;;;;;;;17.13;8.60;;;;;;;1.80;50.21;100802.72;5058121;28;20052;-71
2023/01/20 03:03:51;;;;;;;17.05;9.13;;;;;;;1.78;50.68;100805.50;5045132;28;20064;-69
2023/01/20 03:06:22;;;;;;;16.55;8.73;;;;;;;1.78;50.70;100804.63;5027253;28;20046;-71
2023/01/20 03:08:53;;;;;;;16.45;8.35;;;;;;;1.79;50.67;100806.38;5027832;28;20387;-69
2023/01/20 03:11:21;;;;;;;17.15;8.68;;;;;;;1.78;50.67;100799.22;5027952;28;20052;-70
2023/01/20 03:13:54;;;;;;;14.73;7.97;;;;;;;1.79;50.62;100803.69;5027680;28;20116;-70
2023/01/20 03:16:24;;;;;;;14.98;8.93;;;;;;;1.78;50.76;100805.50;5029840;28;20064;-71
2023/01/20 03:18:55;;;;;;;16.75;9.05;;;;;;;1.78;50.77;100805.50;5048154;28;20068;-71
2023/01/20 03:21:23;;;;;;;16.38;8.55;;;;;;;1.79;50.80;100803.69;5045694;28;20656;-71
2023/01/20 03:23:53;;;;;;;16.13;8.60;;;;;;;1.79;50.87;100801.84;5048741;28;20055;-70
2023/01/20 03:26:23;;;;;;;18.02;8.93;;;;;;;1.79;50.81;100815.34;5040157;28;20414;-70
2023/01/20 03:28:51;;;;;;;18.23;9.25;;;;;;;1.79;50.85;100815.34;5037691;28;20045;-71
2023/01/20 03:31:22;;;;;;;15.98;8.70;;;;;;;1.82;51.01;100815.19;5051020;28;20045;-71
2023/01/20 03:33:53;;;;;;;17.98;8.93;;;;;;;1.81;50.92;100813.44;5051635;28;20083;-71
2023/01/20 03:36:24;;;;;;;17.60;8.77;;;;;;;1.85;50.95;100816.84;5070907;28;20041;-69
2023/01/20 03:38:54;;;;;;;19.02;9.52;;;;;;;1.84;50.95;100818.66;5071108;28;20054;-71
2023/01/20 03:41:35;;;;;;;16.83;9.55;;;;;;;1.86;50.96;100816.78;5070486;28;20509;-71
2023/01/20 03:44:12;;;;;;;18.63;9.40;;;;;;;1.87;51.10;100818.53;5067787;28;20078;-71
2023/01/20 03:46:45;;;;;;;17.35;9.85;;;;;;;1.87;51.09;100823.03;5037898;28;20538;-69
2023/01/20 03:49:19;;;;;;;17.95;9.65;;;;;;;1.87;51.02;100828.44;5030659;28;20124;-71
2023/01/20 03:51:59;;;;;;;16.25;8.73;;;;;;;1.91;51.08;100830.03;5070626;28;20147;-71
2023/01/20 03:54:33;;;;;;;19.08;9.73;;;;;;;1.89;50.92;100834.63;5069940;28;20052;-71
2023/01/20 03:57:08;;;;;;;20.52;9.32;;;;;;;1.91;51.05;100835.44;5070832;28;20469;-70
2023/01/20 03:59:40;;;;;;;17.80;9.27;;;;;;;1.92;51.09;100834.47;5069816;28;20040;-71
2023/01/20 04:02:09;;;;;;;15.98;9.57;;;;;;;1.91;50.94;100832.75;5070852;28;20036;-71
2023/01/20 04:04:41;;;;;;;19.65;9.63;;;;;;;1.93;51.25;100830.81;5069537;28;20132;-71
2023/01/20 04:07:17;;;;;;;20.00;9.63;;;;;;;1.92;51.29;100829.06;5071130;28;20051;-70
2023/01/20 04:09:51;;;;;;;17.42;9.43;;;;;;;1.94;50.87;100828.97;5067114;28;20275;-70
2023/01/20 04:12:19;;;;;;;17.23;9.82;;;;;;;1.93;51.00;100833.50;5050440;28;20041;-69
2023/01/20 04:14:46;;;;;;;17.02;9.52;;;;;;;1.94;50.85;100835.25;5049881;28;20095;-70
2023/01/20 04:17:15;;;;;;;16.77;9.45;;;;;;;1.94;50.99;100832.56;5049359;28;20124;-70
2023/01/20 04:19:43;;;;;;;18.45;9.50;;;;;;;1.94;50.97;100837.97;5046630;28;20414;-70
2023/01/20 04:22:20;;;;;;;17.42;10.10;;;;;;;1.97;51.03;100845.03;5042272;28;20076;-70
2023/01/20 04:24:52;;;;;;;17.23;8.88;;;;;;;1.95;51.11;100838.84;5036136;28;20044;-70
2023/01/20 04:27:20;;;;;;;17.50;9.07;;;;;;;1.94;51.13;100839.78;5043235;28;20043;-70
2023/01/20 04:29:48;;;;;;;17.30;9.68;;;;;;;1.96;51.04;100840.59;5040957;28;20045;-70
2023/01/20 04:32:16;;;;;;;17.73;9.43;;;;;;;1.96;51.08;100835.19;5038041;28;20045;-70
2023/01/20 04:34:44;;;;;;;17.75;9.65;;;;;;;1.97;51.01;100842.34;5041048;28;20125;-70
2023/01/20 04:37:12;;;;;;;18.17;9.60;;;;;;;1.98;51.05;100852.19;5035474;28;20199;-70
2023/01/20 04:39:41;;;;;;;16.58;9.00;;;;;;;1.98;51.13;100847.66;5032944;28;20688;-70
2023/01/20 04:42:09;;;;;;;16.98;8.82;;;;;;;1.99;51.09;100859.34;5036935;28;20069;-69
2023/01/20 04:44:37;;;;;;;18.50;9.43;;;;;;;1.98;51.09;100853.06;5044222;28;20033;-70
2023/01/20 04:47:05;;;;;;;16.92;8.90;;;;;;;1.99;51.06;100849.41;5043610;28;20100;-70
2023/01/20 04:49:34;;;;;;;19.73;9.48;;;;;;;2.00;51.08;100844.88;5034848;28;20048;-70
2023/01/20 04:52:02;;;;;;;16.85;8.93;;;;;;;1.99;51.08;100846.72;5046487;28;20033;-70
2023/01/20 04:54:29;;;;;;;17.30;9.30;;;;;;;2.00;51.10;100855.69;5036360;28;20037;-70
2023/01/20 04:56:59;;;;;;;20.08;9.48;;;;;;;2.01;51.11;100858.28;5044311;28;20120;-70
2023/01/20 04:59:26;;;;;;;15.55;8.80;;;;;;;2.01;51.21;100863.66;5038312;28;20044;-70
2023/01/20 05:01:54;;;;;;;18.95;8.70;;;;;;;2.01;51.22;100860.97;5046362;28;20049;-69
2023/01/20 05:04:22;;;;;;;16.30;8.60;;;;;;;2.02;50.97;100857.31;5046447;28;20102;-70
2023/01/20 05:06:50;;;;;;;19.38;9.25;;;;;;;2.02;51.11;100862.72;5042920;28;20123;-70
2023/01/20 05:09:18;;;;;;;16.00;8.65;;;;;;;2.03;50.88;100863.59;5043130;28;20056;-69
2023/01/20 05:11:45;;;;;;;16.55;8.80;;;;;;;2.03;50.94;100867.16;5046942;28;20041;-70
2023/01/20 05:14:15;;;;;;;17.60;9.27;;;;;;;2.03;50.97;100869.88;5040988;28;20045;-71
2023/01/20 05:16:43;;;;;;;15.73;8.35;;;;;;;2.02;50.89;100872.66;5042819;28;20079;-70
2023/01/20 05:19:11;;;;;;;16.33;9.07;;;;;;;2.03;50.88;100877.09;5029081;28;20096;-70
2023/01/20 05:21:42;;;;;;;15.88;8.32;;;;;;;2.02;50.87;100876.22;5041997;28;20150;-70
2023/01/20 05:24:10;;;;;;;12.95;7.65;;;;;;;2.02;50.88;100881.63;5039027;28;20533;-70
2023/01/20 05:26:38;;;;;;;13.98;8.23;;;;;;;2.03;50.94;100882.50;5036976;28;20124;-70
2023/01/20 05:29:06;;;;;;;14.02;8.50;;;;;;;2.03;50.89;100885.19;5040703;28;20041;-70
2023/01/20 05:31:36;;;;;;;17.95;8.73;;;;;;;2.04;50.80;100889.66;5034312;28;20068;-70
2023/01/20 05:34:04;;;;;;;16.42;8.80;;;;;;;2.03;50.85;100891.47;5041551;28;22076;-70
2023/01/20 05:36:32;;;;;;;15.40;8.55;;;;;;;2.02;50.78;100884.31;5036531;28;20496;-70
2023/01/20 05:39:00;;;;;;;13.63;7.55;;;;;;;2.02;50.70;100900.50;5035799;28;20037;-70
2023/01/20 05:41:28;;;;;;;14.95;8.82;;;;;;;2.02;50.65;100892.41;5046878;28;20041;-70
2023/01/20 05:43:56;;;;;;;16.55;8.60;;;;;;;2.01;50.45;100889.78;5036835;28;20041;-71
2023/01/20 05:46:23;;;;;;;13.55;8.05;;;;;;;2.00;50.57;100898.88;5037841;28;20251;-71
2023/01/20 05:48:53;;;;;;;13.18;7.47;;;;;;;2.00;50.59;100904.25;5044063;28;20622;-70
2023/01/20 05:51:20;;;;;;;14.05;7.63;;;;;;;1.99;50.72;100903.38;5034465;28;20050;-71
2023/01/20 05:53:48;;;;;;;15.82;8.15;;;;;;;1.98;50.78;100900.75;5044191;28;20112;-71
2023/01/20 05:56:16;;;;;;;13.02;7.50;;;;;;;1.98;50.64;100903.47;5040554;28;20048;-71
2023/01/20 05:58:44;;;;;;;14.90;8.50;;;;;;;1.97;50.71;100902.59;5034404;28;20034;-71
2023/01/20 06:01:14;;;;;;;12.63;7.20;;;;;;;1.98;50.59;100912.44;5039163;28;20053;-71
2023/01/20 06:03:42;;;;;;;14.20;7.38;;;;;;;1.97;50.58;100918.78;5041641;28;20143;-71
2023/01/20 06:06:14;;;;;;;14.88;7.97;;;;;;;2.00;50.83;100931.25;5040674;28;20049;-70
2023/01/20 06:08:42;;;;;;;13.93;7.43;;;;;;;1.97;50.83;100924.19;5042647;28;20044;-70
2023/01/20 06:11:10;;;;;;;13.20;7.43;;;;;;;1.98;50.66;100930.44;5040921;28;20037;-72
2023/01/20 06:13:53;;;;;;;;;;;;;;;1.76;51.08;100927.94;5000677;28;20050;-70
2023/01/20 06:16:21;;;;;;;11.45;6.57;;;;;;;1.92;50.56;100931.63;5035615;28;19935;-70
2023/01/20 06:18:49;;;;;;;11.63;6.63;;;;;;;1.96;50.32;100937.75;5033526;28;20051;-70
2023/01/20 06:21:18;;;;;;;12.43;7.13;;;;;;;1.97;50.31;100934.97;5044778;28;20041;-70
2023/01/20 06:23:46;;;;;;;12.88;7.53;;;;;;;1.96;50.42;100937.75;5040534;28;20037;-70
2023/01/20 06:26:14;;;;;;;13.55;7.45;;;;;;;1.96;50.52;100932.34;5050706;28;20048;-70
2023/01/20 06:28:42;;;;;;;14.50;7.95;;;;;;;1.95;50.67;100936.88;5061546;28;20040;-70
2023/01/20 06:31:12;;;;;;;14.30;7.70;;;;;;;1.96;50.86;100937.75;5056928;28;20067;-70
2023/01/20 06:33:40;;;;;;;14.57;7.78;;;;;;;1.97;50.71;100936.81;5064574;28;20405;-71
2023/01/20 06:36:12;;;;;;;14.85;7.80;;;;;;;1.97;50.79;100942.19;5051327;28;20045;-70
2023/01/20 06:38:43;;;;;;;11.60;7.43;;;;;;;1.98;50.64;100946.66;5053592;28;20119;-70
2023/01/20 06:41:12;;;;;;;15.68;8.23;;;;;;;1.98;50.59;100944.81;5054374;28;20080;-70
2023/01/20 06:43:40;;;;;;;12.90;7.28;;;;;;;1.98;50.73;100939.44;5062195;28;20048;-70
2023/01/20 06:46:11;;;;;;;13.30;7.63;;;;;;;1.99;50.95;100941.19;5061981;28;20048;-70
2023/01/20 06:48:39;;;;;;;13.25;7.65;;;;;;;2.00;50.88;100952.84;5059722;28;20079;-69
2023/01/20 06:51:10;;;;;;;13.02;7.80;;;;;;;2.00;50.71;100951.00;5058939;28;20048;-70
2023/01/20 06:53:38;;;;;;;16.63;8.57;;;;;;;2.01;50.68;100959.97;5057169;28;20557;-70
2023/01/20 06:56:09;;;;;;;13.70;8.48;;;;;;;2.02;50.81;100948.22;5056245;28;20048;-71
2023/01/20 06:58:37;;;;;;;11.95;7.30;;;;;;;2.02;50.85;100959.91;5060138;28;20033;-70
2023/01/20 07:01:08;;;;;;;14.57;8.50;;;;;;;2.04;50.68;100958.00;5066028;28;20044;-71
2023/01/20 07:03:37;;;;;;;14.73;8.20;;;;;;;2.03;50.86;100961.66;5059869;28;20044;-70
2023/01/20 07:06:13;;;;;;;15.10;8.20;;;;;;;2.05;50.70;100962.47;5061032;28;20733;-68
2023/01/20 07:08:42;;;;;;;13.20;7.78;;;;;;;2.05;50.57;100975.94;5060405;28;20159;-68
2023/01/20 07:11:12;;;;;;;14.27;7.93;;;;;;;2.06;50.75;100974.13;5040226;28;20498;-68
2023/01/20 07:13:40;;;;;;;13.73;7.75;;;;;;;2.05;50.58;100975.06;5063484;28;20115;-69
2023/01/20 07:16:08;;;;;;;17.17;8.88;;;;;;;2.05;50.50;100967.84;5061657;28;20028;-69
2023/01/20 07:18:39;;;;;;;15.93;9.10;;;;;;;2.05;50.47;100967.84;5057209;28;20040;-69
2023/01/20 07:21:10;;;;;;;12.63;8.32;;;;;;;2.06;50.22;100976.81;5058510;28;20051;-69
2023/01/20 07:23:37;;;;;;;15.13;8.68;;;;;;;2.05;50.54;100977.78;5062306;28;20055;-69
2023/01/20 07:26:07;;;;;;;13.38;8.02;;;;;;;2.07;50.71;100986.69;5059014;28;20041;-70
2023/01/20 07:28:37;;;;;;;16.30;8.68;;;;;;;2.07;50.53;100986.69;5063180;28;20087;-69
2023/01/20 07:31:07;;;;;;;16.17;8.88;;;;;;;2.06;50.54;100984.94;5066727;28;20739;-71
2023/01/20 07:33:35;;;;;;;14.25;8.45;;;;;;;2.06;50.39;100984.94;5066407;28;20040;-71
2023/01/20 07:36:04;;;;;;;14.40;8.93;;;;;;;2.06;50.54;100993.91;5064550;28;20063;-69
2023/01/20 07:38:32;;;;;;;14.27;8.98;;;;;;;2.05;50.39;100992.16;5063561;28;20041;-70
2023/01/20 07:41:02;;;;;;;14.23;8.70;;;;;;;2.06;50.60;100990.31;5059072;28;20051;-69
2023/01/20 07:43:32;;;;;;;16.05;9.20;;;;;;;2.06;50.19;100995.72;5059107;28;20056;-70
2023/01/20 07:46:03;;;;;;;15.23;8.77;;;;;;;2.06;50.30;101010.09;5066908;28;20036;-69
2023/01/20 07:48:33;;;;;;;17.17;9.10;;;;;;;2.05;50.48;101005.66;5064936;28;20036;-70
2023/01/20 07:51:04;;;;;;;17.10;10.25;;;;;;;2.05;50.26;101008.34;5062972;28;20124;-70
2023/01/20 07:53:33;;;;;;;17.08;8.93;;;;;;;2.05;50.33;101023.66;5067247;28;20120;-70
2023/01/20 07:56:02;;;;;;;14.93;9.10;;;;;;;2.05;50.38;101018.28;5065298;28;20582;-70
2023/01/20 07:58:30;;;;;;;16.08;8.77;;;;;;;2.05;50.26;101020.97;5066651;28;20041;-71
2023/01/20 08:00:57;;;;;;;14.88;9.43;;;;;;;2.04;50.14;101022.78;5063985;28;20047;-70
2023/01/20 08:03:27;;;;;;;14.77;8.98;;;;;;;2.05;50.30;101021.84;5066411;28;20047;-71
2023/01/20 08:05:55;;;;;;;16.10;9.70;;;;;;;2.04;50.45;101025.50;5065148;28;20382;-71
2023/01/20 08:08:23;;;;;;;15.68;9.23;;;;;;;2.05;50.50;101027.25;5062698;28;20147;-72
2023/01/20 08:10:53;;;;;;;17.02;9.52;;;;;;;2.05;50.34;101027.25;5056353;28;20037;-69
2023/01/20 08:13:21;;;;;;;16.52;9.93;;;;;;;2.05;50.37;101032.66;5056357;28;20044;-68
2023/01/20 08:15:49;;;;;;;17.23;10.23;;;;;;;2.05;50.22;101038.03;5062474;28;20041;-69
2023/01/20 08:18:17;;;;;;;17.67;9.95;;;;;;;2.05;50.39;101043.44;5064903;28;20079;-68
2023/01/20 08:20:46;;;;;;;16.55;10.02;;;;;;;2.06;50.37;101045.19;5056953;28;20044;-69
2023/01/20 08:23:14;;;;;;;15.50;10.15;;;;;;;2.05;50.34;101048.84;5055851;28;20075;-68
2023/01/20 08:25:42;;;;;;;15.93;9.77;;;;;;;2.06;50.34;101047.03;5054958;28;20051;-70
2023/01/20 08:28:10;;;;;;;16.88;9.23;;;;;;;2.06;50.15;101052.41;5055185;28;20068;-68
2023/01/20 08:30:38;;;;;;;16.15;8.95;;;;;;;2.07;50.28;101054.16;5059886;28;20382;-68
2023/01/20 08:33:06;;;;;;;15.57;9.27;;;;;;;2.06;50.38;101058.69;5063981;28;20124;-70
2023/01/20 08:35:35;;;;;;;15.57;8.52;;;;;;;2.07;50.15;101060.44;5060341;28;20048;-67
2023/01/20 08:38:05;;;;;;;15.63;8.82;;;;;;;2.07;50.40;101062.28;5063818;28;20132;-68
2023/01/20 08:40:33;;;;;;;16.00;8.80;;;;;;;2.06;50.46;101069.50;5062185;28;20041;-68
2023/01/20 08:43:01;;;;;;;15.90;8.70;;;;;;;2.07;50.59;101068.53;5056830;28;20441;-70
2023/01/20 08:45:28;;;;;;;16.40;9.45;;;;;;;2.07;50.43;101068.53;5058281;28;20067;-69
2023/01/20 08:47:56;;;;;;;15.57;8.40;;;;;;;2.07;50.32;101068.53;5064701;28;20242;-68
2023/01/20 08:50:24;;;;;;;15.38;8.70;;;;;;;2.09;50.44;101068.44;5064154;28;20051;-68
2023/01/20 08:52:52;;;;;;;13.80;8.30;;;;;;;2.10;50.42;101072.91;5057310;28;20114;-68
2023/01/20 08:55:21;;;;;;;14.77;8.75;;;;;;;2.11;50.48;101074.66;5062828;28;20049;-69
2023/01/20 08:57:49;;;;;;;16.20;8.75;;;;;;;2.11;50.53;101071.94;5063851;28;20047;-69
2023/01/20 09:00:18;;;;;;;13.68;7.70;;;;;;;2.13;50.32;101075.47;5061920;28;20052;-67
2023/01/20 09:02:46;;;;;;;14.68;8.20;;;;;;;2.11;50.35;101070.13;5064378;28;20044;-68
2023/01/20 09:05:14;;;;;;;14.32;8.20;;;;;;;2.12;50.29;101069.19;5060982;28;20057;-71
2023/01/20 09:07:42;;;;;;;14.05;8.27;;;;;;;2.13;50.53;101076.34;5060102;28;20555;-68
2023/01/20 09:10:11;;;;;;;15.55;8.48;;;;;;;2.14;50.51;101077.22;5060659;28;20074;-69
2023/01/20 09:12:40;;;;;;;14.68;8.23;;;;;;;2.16;50.48;101078.03;5056503;28;20048;-67
2023/01/20 09:15:09;;;;;;;15.57;8.35;;;;;;;2.15;50.38;101082.53;5064112;28;20048;-68
2023/01/20 09:17:37;;;;;;;17.10;8.95;;;;;;;2.16;50.54;101091.53;5062893;28;20123;-68
2023/01/20 09:20:06;;;;;;;14.50;7.95;;;;;;;2.17;50.38;101085.13;5064073;28;20055;-68
2023/01/20 09:22:34;;;;;;;14.15;8.05;;;;;;;2.17;50.33;101083.31;5061535;28;20047;-70
2023/01/20 09:25:02;;;;;;;13.50;8.70;;;;;;;2.19;50.23;101085.94;5062492;28;20033;-68
2023/01/20 09:27:30;;;;;;;14.82;8.68;;;;;;;2.18;50.15;101082.38;5064369;28;20040;-69
2023/01/20 09:29:59;;;;;;;13.18;7.65;;;;;;;2.21;50.06;101086.75;5059930;28;20410;-67
2023/01/20 09:32:27;;;;;;;14.05;8.02;;;;;;;2.20;50.13;101087.69;5065563;28;20119;-69
2023/01/20 09:34:55;;;;;;;12.35;7.28;;;;;;;2.19;50.26;101084.13;5056887;28;20447;-69
2023/01/20 09:46:03;;;;;;;14.20;7.90;;;;;;;2.20;50.05;101102.09;5061550;28;20044;-67
2023/01/20 09:54:21;;;;;;;13.02;7.90;;;;;;;2.19;49.98;101094.06;5049122;28;20056;-67
2023/01/20 09:56:53;;;;;;;16.05;8.27;;;;;;;2.20;49.88;101095.81;5062074;28;20048;-69
2023/01/20 09:59:24;;;;;;;14.70;8.02;;;;;;;2.20;49.87;101091.28;5057895;28;20078;-68
2023/01/20 10:01:56;;;;;;;12.35;8.20;;;;;;;2.20;49.84;101096.69;5055560;28;20391;-67
2023/01/20 10:04:32;;;;;;;13.25;7.72;;;;;;;2.21;49.79;101089.47;5055345;28;20041;-66
2023/01/20 10:07:07;;;;;;;14.55;8.18;;;;;;;2.21;49.74;101093.03;5058204;28;20044;-67
2023/01/20 10:09:41;;;;;;;13.38;7.97;;;;;;;2.22;49.78;101097.50;5055918;28;20482;-66
2023/01/20 10:12:14;;;;;;;13.00;7.68;;;;;;;2.21;49.56;101106.53;5060719;28;20063;-67
2023/01/20 10:14:46;;;;;;;12.27;7.10;;;;;;;2.21;49.98;101101.13;5062466;28;20139;-67
2023/01/20 10:17:23;;;;;;;12.57;7.43;;;;;;;2.23;49.73;101098.38;5058533;28;20048;-69
2023/01/20 10:19:57;;;;;;;12.07;6.85;;;;;;;2.23;49.85;101101.94;5054276;28;20048;-69
2023/01/20 10:22:31;;;;;;;10.93;6.43;;;;;;;2.24;49.70;101092.00;5065129;28;20494;-69
2023/01/20 10:25:05;;;;;;;9.88;6.47;;;;;;;2.24;49.84;101097.41;5060362;28;20102;-69
2023/01/20 10:27:37;;;;;;;10.55;6.60;;;;;;;2.24;49.76;101097.41;5057577;28;20051;-69
2023/01/20 10:30:09;;;;;;;10.60;6.80;;;;;;;2.25;49.71;101091.03;5049869;28;20449;-69
2023/01/20 10:32:44;;;;;;;9.05;5.70;;;;;;;2.24;49.60;101089.31;5062664;28;20033;-69
2023/01/20 10:35:17;;;;;;;10.27;6.03;;;;;;;2.25;49.70;101085.63;5056216;28;20055;-69
2023/01/20 10:37:45;;;;;;;9.40;5.93;;;;;;;2.24;49.94;101082.09;5057789;28;20044;-69
2023/01/20 10:40:26;;;;;;;10.13;5.70;;;;;;;2.28;49.69;101090.91;5063998;28;20524;-69
2023/01/20 10:42:58;;;;;;;9.23;5.53;;;;;;;2.28;49.89;101087.31;5058702;28;20106;-69
2023/01/20 10:45:38;;;;;;;11.48;6.20;;;;;;;2.29;49.51;101087.25;5056335;28;20081;-69
2023/01/20 10:48:20;;;;;;;8.60;5.18;;;;;;;2.31;49.35;101097.97;5057605;28;20040;-69
2023/01/20 10:50:57;;;;;;;10.02;5.53;;;;;;;2.29;49.39;101073.75;5055651;28;20055;-69
2023/01/20 10:53:39;;;;;;;8.73;5.55;;;;;;;2.32;49.49;101079.00;5053513;28;20090;-69
2023/01/20 10:56:23;;;;;;;10.10;5.25;;;;;;;2.32;49.20;101084.41;5054207;28;20417;-69
2023/01/20 10:58:51;;;;;;;9.75;5.43;;;;;;;2.31;49.68;101084.47;5061440;28;20042;-69
2023/01/20 11:01:20;;;;;;;10.73;5.50;;;;;;;2.32;49.63;101080.84;5053584;28;20105;-69
2023/01/20 11:03:49;;;;;;;11.15;5.70;;;;;;;2.33;49.49;101086.13;5065786;28;20047;-69
2023/01/20 11:06:19;;;;;;;9.65;5.55;;;;;;;2.33;49.44;101079.88;5064391;28;20044;-68
2023/01/20 11:08:48;;;;;;;8.57;5.20;;;;;;;2.33;49.62;101083.44;5058437;28;20044;-69
2023/01/20 11:11:19;;;;;;;9.68;5.25;;;;;;;2.34;49.49;101081.59;5060379;28;20075;-69
2023/01/20 11:13:50;;;;;;;7.47;4.82;;;;;;;2.35;49.56;101086.06;5057808;28;20044;-69
2023/01/20 11:16:23;;;;;;;9.63;5.10;;;;;;;2.35;49.46;101078.84;5043312;28;20376;-69
2023/01/20 11:18:58;;;;;;;9.15;5.10;;;;;;;2.36;49.15;101072.50;5037834;28;20070;-69
2023/01/20 11:21:28;;;;;;;9.10;5.30;;;;;;;2.37;49.54;101081.47;5059709;28;20514;-68
2023/01/20 11:23:58;;;;;;;8.25;5.25;;;;;;;2.39;49.46;101082.28;5062516;28;20079;-69
2023/01/20 11:26:28;;;;;;;10.35;5.07;;;;;;;2.39;49.47;101083.16;5059319;28;20048;-68
2023/01/20 11:28:58;;;;;;;9.98;5.55;;;;;;;2.40;49.59;101084.91;5061466;28;20072;-69
2023/01/20 11:31:38;;;;;;;8.75;5.40;;;;;;;2.44;48.74;101072.09;5055552;28;20045;-69
2023/01/20 11:34:22;;;;;;;9.48;5.03;;;;;;;2.43;48.86;101079.31;5058712;28;20237;-68
2023/01/20 11:36:51;;;;;;;9.25;5.75;;;;;;;2.41;49.37;101067.72;5057092;28;20274;-69
2023/01/20 11:39:27;;;;;;;9.82;5.47;;;;;;;2.44;48.83;101078.38;5061845;28;20045;-69
2023/01/20 11:42:11;;;;;;;7.80;4.43;;;;;;;2.45;48.76;101080.13;5062121;28;20517;-68
2023/01/20 11:44:43;;;;;;;8.38;4.78;;;;;;;2.45;49.02;101076.56;5055623;28;20060;-68
2023/01/20 11:47:23;;;;;;;7.43;4.60;;;;;;;2.48;48.69;101073.72;5061583;28;20324;-70
2023/01/20 11:50:22;;;;;;;8.23;4.55;;;;;;;2.46;48.46;101084.59;5058488;28;20132;-70
2023/01/20 11:52:51;;;;;;;8.65;4.68;;;;;;;2.46;49.40;101070.19;5065552;28;20097;-71
2023/01/20 11:55:22;;;;;;;7.00;4.43;;;;;;;2.49;49.08;101070.94;5062801;28;20045;-68
2023/01/20 11:57:53;;;;;;;7.35;4.43;;;;;;;2.51;49.45;101077.13;5065863;28;20037;-70